Time;durP1;ratioP1;P1;durP2;ratioP2;P2;SDS_P1;SDS_P2;PMS_P1;PMS_P2;Temp;Humidity;BMP_temperature;BMP_pressure;BME280_temperature;BME280_humidity;BME280_pressure;Samples;Min_cycle;Max_cycle;Signal;HPM_P1;HPM_P2
2022/04/12 00:00:43;;;;;;;3.30;2.28;;;;;;;7.71;55.57;96296.19;2076344;28;20225;-66
2022/04/12 00:01:47;;;;;;;5.05;3.05;;;;;;;7.73;56.08;96297.78;2076221;28;20276;-65
2022/04/12 00:02:49;;;;;;;7.32;3.10;;;;;;;7.66;56.49;96293.88;2073311;28;20197;-65
2022/04/12 00:03:51;;;;;;;6.43;2.45;;;;;;;7.65;56.61;96302.63;2077557;28;20235;-65
2022/04/12 00:04:53;;;;;;;5.40;3.70;;;;;;;7.65;56.31;96294.81;2087278;28;20200;-65
2022/04/12 00:06:00;;;;;;;5.82;3.00;;;;;;;7.70;56.36;96287.56;2085611;28;20228;-65
2022/04/12 00:07:02;;;;;;;7.10;2.72;;;;;;;7.63;57.14;96301.88;2085418;28;20684;-65
2022/04/12 00:08:05;;;;;;;5.05;2.80;;;;;;;7.55;58.10;96305.88;2075731;28;20229;-65
2022/04/12 00:09:06;;;;;;;7.28;3.28;;;;;;;7.48;57.83;96295.84;2076297;28;20203;-65
2022/04/12 00:10:09;;;;;;;5.82;2.85;;;;;;;7.33;57.40;96292.41;2084187;28;20212;-65
2022/04/12 00:11:10;;;;;;;8.82;3.45;;;;;;;7.29;57.50;96290.06;2085225;28;20563;-65
2022/04/12 00:12:15;;;;;;;6.20;3.45;;;;;;;7.38;57.02;96286.91;2086825;28;20201;-65
2022/04/12 00:13:18;;;;;;;8.23;2.95;;;;;;;7.40;57.31;96281.63;2085658;28;20197;-65
2022/04/12 00:14:19;;;;;;;5.82;3.47;;;;;;;7.47;57.73;96288.13;2086606;28;20284;-66
2022/04/12 00:15:21;;;;;;;7.03;3.35;;;;;;;7.44;58.16;96270.06;2084833;28;20261;-65
2022/04/12 00:16:22;;;;;;;7.75;2.90;;;;;;;7.39;58.53;96291.22;2084314;28;20203;-65
2022/04/12 00:19:04;;;;;;;7.95;3.13;;;;;;;7.26;59.10;96296.31;2083172;28;20200;-65
2022/04/12 00:20:06;;;;;;;7.93;2.70;;;;;;;7.25;59.21;96286.84;2085090;28;20607;-65
2022/04/12 00:21:08;;;;;;;5.85;3.33;;;;;;;7.18;58.82;96293.34;2086542;28;20199;-65
2022/04/12 00:22:10;;;;;;;8.18;3.15;;;;;;;7.20;59.40;96291.47;2085989;28;20201;-65
2022/04/12 00:23:14;;;;;;;6.50;2.88;;;;;;;7.10;58.09;96264.31;2085858;28;20205;-66
2022/04/12 00:24:15;;;;;;;6.03;3.20;;;;;;;7.31;57.68;96283.84;2085150;28;20240;-65
2022/04/12 00:25:18;;;;;;;4.75;3.03;;;;;;;7.33;57.62;96287.19;2085568;28;20238;-65
2022/04/12 00:26:20;;;;;;;6.03;3.05;;;;;;;7.37;57.29;96284.41;2085254;28;20204;-65
2022/04/12 00:27:21;;;;;;;11.45;3.70;;;;;;;7.36;57.12;96285.34;2078407;28;20207;-65
2022/04/12 00:28:23;;;;;;;4.90;2.90;;;;;;;7.32;57.64;96287.28;2078165;28;20204;-65
2022/04/12 00:29:24;;;;;;;5.45;3.15;;;;;;;7.28;58.28;96273.59;2083286;28;20218;-65
2022/04/12 00:30:28;;;;;;;5.28;3.25;;;;;;;7.13;58.45;96261.50;2078154;28;20233;-65
2022/04/12 00:31:30;;;;;;;4.75;2.65;;;;;;;7.30;57.88;96278.72;2079756;28;20201;-65
2022/04/12 00:32:33;;;;;;;7.60;3.60;;;;;;;7.33;57.86;96282.00;2087422;28;20219;-65
2022/04/12 00:33:35;;;;;;;5.20;3.25;;;;;;;7.27;58.74;96277.16;2084730;28;20208;-65
2022/04/12 00:34:37;;;;;;;8.57;3.03;;;;;;;7.11;59.10;96252.94;2084090;28;20236;-65
2022/04/12 00:35:38;;;;;;;6.40;3.53;;;;;;;7.14;59.53;96278.81;2085110;28;20219;-64
2022/04/12 00:36:40;;;;;;;4.38;2.85;;;;;;;7.11;60.20;96281.59;2085315;28;20669;-65
2022/04/12 00:37:42;;;;;;;6.40;3.10;;;;;;;7.07;61.02;96287.91;2087474;28;20208;-65
2022/04/12 00:38:44;;;;;;;4.80;3.05;;;;;;;6.99;60.94;96284.94;2084844;28;20195;-65
2022/04/12 00:39:45;;;;;;;8.25;3.20;;;;;;;7.05;61.07;96293.22;2084486;28;20849;-65
2022/04/12 00:40:47;;;;;;;4.93;3.00;;;;;;;6.95;61.38;96286.06;2083364;28;20219;-65
2022/04/12 00:41:49;;;;;;;6.55;3.75;;;;;;;6.86;61.52;96287.41;2085813;28;20689;-65
2022/04/12 00:42:51;;;;;;;8.55;3.38;;;;;;;6.70;62.04;96283.13;2085327;28;20205;-65
2022/04/12 00:43:53;;;;;;;6.25;3.15;;;;;;;6.75;62.11;96277.66;2084666;28;20197;-65
2022/04/12 00:44:54;;;;;;;4.18;2.70;;;;;;;6.83;61.87;96282.41;2084096;28;20203;-65
2022/04/12 00:46:02;;;;;;;5.50;3.13;;;;;;;6.86;61.79;96270.06;2084809;28;20565;-65
2022/04/12 00:47:04;;;;;;;4.30;2.78;;;;;;;6.83;61.85;96278.03;2085301;28;20803;-65
2022/04/12 00:48:06;;;;;;;5.10;3.00;;;;;;;6.80;62.36;96279.97;2084747;28;20660;-65
2022/04/12 00:49:07;;;;;;;4.75;2.45;;;;;;;6.77;61.74;96278.41;2079187;28;20204;-65
2022/04/12 00:50:11;;;;;;;4.45;3.10;;;;;;;6.73;61.40;96274.31;2078894;28;20202;-65
2022/04/12 00:51:13;;;;;;;6.10;2.47;;;;;;;6.74;61.48;96283.78;2084599;28;20259;-65
2022/04/12 00:52:16;;;;;;;11.13;2.88;;;;;;;6.77;61.83;96283.59;2085106;28;20209;-65
2022/04/12 00:53:17;;;;;;;8.52;3.47;;;;;;;6.79;61.83;96284.34;2084402;28;20204;-65
2022/04/12 00:54:20;;;;;;;4.07;2.90;;;;;;;6.67;62.65;96277.28;2085148;28;20207;-65
2022/04/12 00:55:21;;;;;;;5.07;2.90;;;;;;;6.58;62.86;96268.22;2084231;28;20902;-65
2022/04/12 00:56:24;;;;;;;6.22;3.15;;;;;;;6.75;62.13;96282.84;2086076;28;20229;-65
2022/04/12 00:57:26;;;;;;;5.85;2.47;;;;;;;6.73;62.36;96280.34;2083424;28;20614;-64
2022/04/12 00:58:27;;;;;;;4.05;2.50;;;;;;;6.73;62.28;96284.72;2084699;28;20199;-65
2022/04/12 00:59:31;;;;;;;3.78;3.15;;;;;;;6.72;62.72;96277.81;2084872;28;20568;-64
2022/04/12 01:00:34;;;;;;;10.68;3.78;;;;;;;6.70;63.24;96279.66;2083403;28;20240;-65
2022/04/12 01:01:36;;;;;;;5.43;3.38;;;;;;;6.52;63.37;96266.81;2085297;28;20198;-65
2022/04/12 01:02:39;;;;;;;6.22;2.75;;;;;;;6.67;62.12;96279.88;2084536;28;20192;-65
2022/04/12 01:03:41;;;;;;;4.68;2.95;;;;;;;6.59;61.78;96271.69;2078659;28;20712;-65
2022/04/12 01:04:42;;;;;;;7.25;2.58;;;;;;;6.78;60.40;96280.06;2079585;28;20759;-65
2022/04/12 01:05:44;;;;;;;8.68;2.92;;;;;;;6.84;60.49;96271.06;2077107;28;20225;-65
2022/04/12 01:06:46;;;;;;;6.13;2.78;;;;;;;6.83;60.21;96283.25;2076655;28;20196;-65
2022/04/12 01:07:47;;;;;;;9.48;3.20;;;;;;;6.85;60.28;96276.19;2076101;28;20815;-65
2022/04/12 01:08:50;;;;;;;7.50;3.33;;;;;;;6.92;59.50;96274.91;2075316;28;20198;-64
2022/04/12 01:09:54;;;;;;;5.35;3.40;;;;;;;6.92;59.82;96266.25;2077779;28;20673;-65
2022/04/12 01:10:59;;;;;;;6.60;3.33;;;;;;;6.91;59.75;96275.81;2078320;28;20247;-65
2022/04/12 01:12:08;;;;;;;4.75;2.90;;;;;;;6.92;60.19;96274.91;2076216;28;20198;-65
2022/04/12 01:13:10;;;;;;;5.50;2.47;;;;;;;6.93;59.83;96266.13;2075614;28;20197;-65
2022/04/12 01:14:11;;;;;;;8.88;3.60;;;;;;;7.00;59.52;96268.38;2077420;28;20560;-64
2022/04/12 01:15:21;;;;;;;4.35;2.72;;;;;;;7.02;59.38;96266.53;2078477;28;20201;-65
2022/04/12 01:16:23;;;;;;;5.57;2.60;;;;;;;6.99;59.25;96257.13;2085662;28;20201;-65
2022/04/12 01:17:24;;;;;;;5.57;3.20;;;;;;;7.00;59.32;96269.25;2083666;28;20232;-65
2022/04/12 01:18:26;;;;;;;7.82;3.03;;;;;;;7.06;59.19;96268.03;2075617;28;20687;-65
2022/04/12 01:19:27;;;;;;;9.23;2.75;;;;;;;7.02;59.36;96269.16;2077551;28;20189;-65
2022/04/12 01:20:30;;;;;;;4.30;2.58;;;;;;;7.02;59.33;96267.38;2074975;28;20217;-66
2022/04/12 01:21:39;;;;;;;7.28;2.85;;;;;;;7.02;59.28;96267.38;2076231;28;20204;-65
2022/04/12 01:23:09;;;;;;;4.65;2.67;;;;;;;7.02;59.10;96269.16;2076354;28;20189;-65
2022/04/12 01:24:10;;;;;;;5.53;3.15;;;;;;;7.06;59.07;96265.44;2078209;28;20205;-65
2022/04/12 01:25:12;;;;;;;6.38;3.28;;;;;;;6.82;58.64;96228.66;2074561;28;20204;-65
2022/04/12 01:26:14;;;;;;;4.80;2.90;;;;;;;7.09;58.54;96257.41;2077463;28;20204;-65
2022/04/12 01:27:15;;;;;;;5.43;2.65;;;;;;;7.10;58.39;96275.56;2076950;28;20212;-65
2022/04/12 01:28:17;;;;;;;4.57;2.70;;;;;;;7.12;58.33;96265.06;2075700;28;20189;-65
2022/04/12 01:29:18;;;;;;;4.57;2.60;;;;;;;7.11;58.67;96255.56;2075810;28;20204;-65
2022/04/12 01:30:20;;;;;;;4.53;2.63;;;;;;;7.16;58.59;96265.72;2075552;28;20227;-65
2022/04/12 01:31:24;;;;;;;6.63;2.95;;;;;;;7.10;58.81;96259.09;2076548;28;20204;-66
2022/04/12 01:32:26;;;;;;;4.00;2.75;;;;;;;7.08;58.12;96248.78;2076026;28;20225;-65
2022/04/12 01:33:28;;;;;;;7.03;3.25;;;;;;;7.23;57.92;96260.03;2076285;28;20198;-65
2022/04/12 01:34:29;;;;;;;5.80;2.60;;;;;;;7.23;58.12;96259.19;2075509;28;20201;-65
2022/04/12 01:35:31;;;;;;;5.47;2.00;;;;;;;7.24;58.25;96264.31;2076621;28;20583;-65
2022/04/12 01:36:32;;;;;;;15.18;2.75;;;;;;;7.17;58.23;96260.38;2076447;28;20569;-65
2022/04/12 01:37:34;;;;;;;4.57;2.30;;;;;;;7.13;58.39;96257.16;2074365;28;20197;-65
2022/04/12 01:38:36;;;;;;;5.03;2.90;;;;;;;7.10;58.67;96262.53;2075746;28;20856;-65
2022/04/12 01:39:37;;;;;;;3.08;2.13;;;;;;;7.03;58.83;96255.19;2075990;28;20204;-66
2022/04/12 01:40:38;;;;;;;5.35;2.20;;;;;;;6.98;59.11;96254.63;2076106;28;20805;-65
2022/04/12 01:41:40;;;;;;;3.35;2.15;;;;;;;7.00;59.01;96252.75;2077625;28;20201;-65
2022/04/12 01:42:42;;;;;;;3.55;2.20;;;;;;;6.92;59.15;96243.66;2075832;28;20203;-65
2022/04/12 01:43:43;;;;;;;3.42;2.78;;;;;;;7.03;59.02;96257.78;2076355;28;20203;-65
2022/04/12 01:44:45;;;;;;;4.13;2.97;;;;;;;7.00;59.12;96255.34;2076770;28;20193;-65
2022/04/12 01:45:46;;;;;;;4.32;2.75;;;;;;;7.01;59.20;96259.66;2076229;28;20221;-65
2022/04/12 01:46:48;;;;;;;2.63;2.08;;;;;;;7.05;59.11;96256.75;2076404;28;20211;-65
2022/04/12 01:47:49;;;;;;;7.00;2.38;;;;;;;7.10;58.83;96269.53;2078056;28;20267;-65
2022/04/12 01:48:51;;;;;;;4.50;2.45;;;;;;;7.02;58.85;96251.75;2074868;28;20196;-65
2022/04/12 01:49:52;;;;;;;3.40;2.13;;;;;;;6.79;59.09;96211.47;2075572;28;20269;-65
2022/04/12 01:50:54;;;;;;;5.70;2.20;;;;;;;6.92;59.12;96242.81;2075564;28;20213;-65
2022/04/12 01:51:55;;;;;;;4.95;2.58;;;;;;;7.02;59.43;96262.16;2077464;28;20244;-64
2022/04/12 01:52:57;;;;;;;4.95;2.50;;;;;;;6.90;59.69;96245.50;2078702;28;20203;-66
2022/04/12 01:53:58;;;;;;;6.68;2.80;;;;;;;6.93;59.51;96260.94;2076843;28;20197;-65
2022/04/12 01:55:02;;;;;;;10.85;3.20;;;;;;;6.80;59.32;96235.72;2073956;28;20496;-65
2022/04/12 01:56:03;;;;;;;4.68;2.78;;;;;;;6.87;59.90;96268.28;2075356;28;20216;-65
2022/04/12 01:57:05;;;;;;;8.02;2.70;;;;;;;6.87;60.09;96263.06;2076868;28;20204;-65
2022/04/12 01:58:06;;;;;;;6.18;2.78;;;;;;;6.81;60.54;96261.66;2077058;28;20217;-65
2022/04/12 01:59:08;;;;;;;3.60;2.15;;;;;;;6.62;61.41;96242.84;2076827;28;20205;-65
2022/04/12 02:00:13;;;;;;;8.00;3.03;;;;;;;6.64;62.13;96260.03;2074944;28;20671;-65
2022/04/12 02:01:14;;;;;;;3.00;2.30;;;;;;;6.70;61.82;96257.13;2074465;28;20194;-65
2022/04/12 02:02:16;;;;;;;4.38;2.60;;;;;;;6.51;62.04;96233.09;2074877;28;20196;-65
2022/04/12 02:03:20;;;;;;;5.78;2.25;;;;;;;6.58;62.36;96251.78;2075512;28;20204;-65
2022/04/12 02:04:21;;;;;;;2.97;2.50;;;;;;;6.49;62.63;96254.00;2082660;28;20232;-64
2022/04/12 02:05:23;;;;;;;3.88;2.42;;;;;;;6.43;62.72;96249.16;2083525;28;20726;-65
2022/04/12 02:06:25;;;;;;;4.30;2.67;;;;;;;6.37;63.12;96233.91;2084595;28;20199;-65
2022/04/12 02:07:26;;;;;;;7.20;2.50;;;;;;;6.44;62.49;96249.97;2083701;28;20211;-64
2022/04/12 02:08:28;;;;;;;4.05;2.60;;;;;;;6.33;63.28;96248.84;2086584;28;20701;-65
2022/04/12 02:09:29;;;;;;;4.05;2.50;;;;;;;6.32;63.68;96246.31;2085236;28;20227;-65
2022/04/12 02:10:31;;;;;;;5.28;2.70;;;;;;;6.38;63.17;96240.75;2087458;28;20234;-65
2022/04/12 02:11:32;;;;;;;7.43;2.70;;;;;;;6.38;62.95;96242.53;2086596;28;20215;-65
2022/04/12 02:12:34;;;;;;;2.75;2.22;;;;;;;6.33;62.84;96243.63;2086392;28;20198;-65
2022/04/12 02:13:35;;;;;;;6.00;2.63;;;;;;;6.31;62.64;96247.22;2086330;28;20213;-65
2022/04/12 02:14:37;;;;;;;3.10;2.20;;;;;;;6.31;62.49;96239.41;2086541;28;20696;-65
2022/04/12 02:15:39;;;;;;;4.47;2.47;;;;;;;6.38;61.47;96243.34;2087097;28;20220;-65
2022/04/12 02:16:40;;;;;;;5.78;2.58;;;;;;;6.43;61.95;96243.09;2080722;28;20683;-64
2022/04/12 02:17:42;;;;;;;4.57;2.55;;;;;;;6.47;61.47;96249.81;2080970;28;20282;-64
2022/04/12 02:18:43;;;;;;;3.33;2.00;;;;;;;6.64;60.66;96251.41;2087168;28;20579;-65
2022/04/12 02:19:45;;;;;;;4.05;2.10;;;;;;;6.47;60.76;96218.59;2088593;28;20421;-65
2022/04/12 02:20:46;;;;;;;3.90;2.22;;;;;;;6.52;61.14;96248.59;2084104;28;20788;-65
2022/04/12 02:21:48;;;;;;;3.22;1.75;;;;;;;6.42;61.28;96231.03;2084743;28;20262;-65
2022/04/12 02:22:49;;;;;;;6.30;2.13;;;;;;;6.46;62.27;96248.94;2086842;28;20223;-66
2022/04/12 02:23:50;;;;;;;4.78;2.60;;;;;;;6.40;62.75;96249.31;2086046;28;20532;-65
2022/04/12 02:24:52;;;;;;;3.95;2.53;;;;;;;6.34;62.87;96241.88;2086626;28;20204;-65
2022/04/12 02:25:53;;;;;;;3.15;2.10;;;;;;;6.44;62.17;96252.56;2087169;28;20216;-65
2022/04/12 02:26:55;;;;;;;4.88;2.35;;;;;;;6.48;61.84;96252.28;2085657;28;20204;-65
2022/04/12 02:27:56;;;;;;;7.25;2.17;;;;;;;6.54;61.55;96246.72;2086862;28;20244;-65
2022/04/12 02:28:58;;;;;;;17.75;2.40;;;;;;;6.62;61.16;96253.25;2084725;28;20197;-65
2022/04/12 02:29:59;;;;;;;5.45;3.03;;;;;;;6.58;61.32;96249.16;2084571;28;20205;-65
2022/04/12 02:31:01;;;;;;;4.95;2.42;;;;;;;6.53;61.23;96246.84;2086461;28;20201;-65
2022/04/12 02:32:03;;;;;;;7.80;3.40;;;;;;;6.58;61.28;96256.97;2085790;28;20197;-65
2022/04/12 02:33:04;;;;;;;3.97;2.47;;;;;;;6.55;61.48;96247.59;2085988;28;20615;-65
2022/04/12 02:34:11;;;;;;;5.72;2.22;;;;;;;6.50;61.74;96247.00;2090365;28;20405;-64
2022/04/12 02:35:40;;;;;;;4.40;2.35;;;;;;;6.58;61.46;96254.38;2061157;28;20265;-63
2022/04/12 02:36:43;;;;;;;5.72;2.08;;;;;;;6.55;61.37;96252.81;2090981;28;20216;-63
2022/04/12 02:38:08;;;;;;;5.32;2.20;;;;;;;6.50;61.89;96250.44;2092697;28;20200;-63
2022/04/12 02:39:10;;;;;;;5.63;2.20;;;;;;;6.43;62.17;96243.94;2088038;28;20765;-64
2022/04/12 02:40:11;;;;;;;5.28;2.72;;;;;;;6.33;62.45;96229.78;2088138;28;20201;-65
2022/04/12 02:41:13;;;;;;;3.50;2.00;;;;;;;6.33;62.84;96246.22;2085653;28;20199;-64
2022/04/12 02:42:14;;;;;;;5.00;2.58;;;;;;;6.28;63.20;96248.25;2075877;28;20198;-64
2022/04/12 02:43:16;;;;;;;3.83;2.60;;;;;;;6.22;63.89;96240.81;2075536;28;20574;-65
2022/04/12 02:44:17;;;;;;;5.90;2.08;;;;;;;6.24;63.60;96233.75;2085285;28;20866;-64
2022/04/12 02:45:19;;;;;;;5.20;2.80;;;;;;;6.26;63.50;96236.25;2084916;28;20224;-64
2022/04/12 02:46:20;;;;;;;4.15;2.42;;;;;;;6.21;63.59;96236.50;2088288;28;20196;-64
2022/04/12 02:47:26;;;;;;;3.95;2.47;;;;;;;6.17;63.26;96236.78;2084659;28;20201;-65
2022/04/12 02:48:28;;;;;;;5.80;2.33;;;;;;;6.20;63.43;96239.22;2083104;28;20192;-64
2022/04/12 02:49:29;;;;;;;4.22;2.40;;;;;;;6.21;63.10;96235.69;2085040;28;20206;-64
2022/04/12 02:50:31;;;;;;;3.45;2.50;;;;;;;6.23;62.78;96236.44;2084655;28;20217;-65
2022/04/12 02:51:33;;;;;;;4.15;2.38;;;;;;;6.25;63.09;96244.97;2085875;28;20234;-64
2022/04/12 02:52:34;;;;;;;4.60;2.53;;;;;;;6.15;63.67;96236.88;2085459;28;20203;-64
2022/04/12 02:53:35;;;;;;;4.93;2.45;;;;;;;6.10;64.00;96233.72;2083387;28;20551;-64
2022/04/12 02:54:37;;;;;;;2.65;1.75;;;;;;;6.00;64.09;96229.94;2084386;28;20644;-64
2022/04/12 02:55:38;;;;;;;2.30;1.63;;;;;;;5.92;64.94;96235.56;2083143;28;20225;-64
2022/04/12 02:56:40;;;;;;;3.60;2.22;;;;;;;5.97;65.08;96237.91;2085832;28;20200;-65
2022/04/12 02:57:41;;;;;;;4.25;2.45;;;;;;;5.94;64.98;96236.31;2085853;28;20559;-65
2022/04/12 02:58:43;;;;;;;5.30;2.63;;;;;;;5.80;64.33;96199.84;2087628;28;20208;-64
2022/04/12 02:59:44;;;;;;;3.90;2.30;;;;;;;5.97;64.24;96227.53;2084273;28;20201;-65
2022/04/12 03:00:46;;;;;;;3.80;2.08;;;;;;;6.07;63.52;96229.50;2086764;28;20223;-64
2022/04/12 03:01:47;;;;;;;6.70;2.80;;;;;;;6.06;64.13;96225.25;2087521;28;20201;-64
2022/04/12 03:02:49;;;;;;;4.45;2.35;;;;;;;6.07;63.82;96229.50;2088048;28;20701;-64
2022/04/12 03:03:51;;;;;;;3.28;2.20;;;;;;;6.11;63.65;96228.41;2085900;28;20293;-65
2022/04/12 03:04:52;;;;;;;4.65;2.97;;;;;;;6.11;63.11;96228.41;2082229;28;20197;-64
2022/04/12 03:05:54;;;;;;;3.80;2.22;;;;;;;6.21;63.29;96228.72;2084373;28;20231;-64
2022/04/12 03:06:56;;;;;;;4.50;2.50;;;;;;;6.20;63.52;96231.41;2083743;28;20197;-64
2022/04/12 03:07:57;;;;;;;5.65;2.75;;;;;;;6.11;63.69;96223.19;2085321;28;20208;-64
2022/04/12 03:08:59;;;;;;;3.55;2.10;;;;;;;6.05;63.72;96227.91;2085791;28;20199;-64
2022/04/12 03:10:01;;;;;;;3.47;2.00;;;;;;;5.94;63.40;96199.91;2084928;28;20204;-64
2022/04/12 03:11:02;;;;;;;7.15;2.50;;;;;;;6.19;63.09;96229.72;2084554;28;20197;-65
2022/04/12 03:12:05;;;;;;;3.85;2.33;;;;;;;6.27;62.52;96235.31;2083701;28;20203;-64
2022/04/12 03:13:06;;;;;;;7.03;2.50;;;;;;;6.30;62.20;96228.19;2083497;28;20563;-65
2022/04/12 03:14:08;;;;;;;14.35;2.33;;;;;;;6.31;62.67;96234.22;2085636;28;20599;-65
2022/04/12 03:15:10;;;;;;;6.40;3.08;;;;;;;6.21;63.36;96217.47;2085129;28;20747;-64
2022/04/12 03:16:12;;;;;;;6.10;2.10;;;;;;;6.19;63.71;96219.31;2084885;28;20208;-64
2022/04/12 03:17:14;;;;;;;8.23;3.13;;;;;;;6.16;63.78;96229.94;2084715;28;20645;-64
2022/04/12 03:18:17;;;;;;;5.43;2.55;;;;;;;6.11;63.52;96223.19;2086095;28;20192;-65
2022/04/12 03:19:18;;;;;;;3.97;2.60;;;;;;;5.96;63.47;96192.91;2086722;28;20579;-64
2022/04/12 03:20:20;;;;;;;5.15;2.42;;;;;;;6.07;64.42;96221.69;2083646;28;20224;-64
2022/04/12 03:21:21;;;;;;;4.63;2.50;;;;;;;5.90;64.62;96203.59;2086717;28;20208;-64
2022/04/12 03:22:23;;;;;;;5.00;2.63;;;;;;;6.01;65.04;96222.03;2082976;28;20197;-64
2022/04/12 03:23:24;;;;;;;7.03;2.28;;;;;;;5.72;66.26;96221.03;2076292;28;20627;-65
2022/04/12 03:24:30;;;;;;;4.40;2.17;;;;;;;5.78;66.16;96219.88;2082751;28;20544;-65
2022/04/12 03:25:32;;;;;;;4.40;2.22;;;;;;;5.82;66.24;96230.03;2083997;28;20225;-64
2022/04/12 03:26:33;;;;;;;4.47;2.35;;;;;;;5.71;67.00;96227.19;2081730;28;20204;-64
2022/04/12 03:27:35;;;;;;;4.75;2.75;;;;;;;5.67;67.02;96223.06;2082593;28;20203;-65
2022/04/12 03:28:36;;;;;;;9.00;3.15;;;;;;;5.65;67.21;96230.94;2084720;28;20223;-64
2022/04/12 03:29:39;;;;;;;5.65;2.70;;;;;;;5.34;68.61;96226.59;2086180;28;20208;-64
2022/04/12 03:30:40;;;;;;;6.18;2.70;;;;;;;5.40;68.64;96225.41;2083840;28;20587;-64
2022/04/12 03:31:42;;;;;;;4.80;3.08;;;;;;;5.34;69.06;96226.59;2085806;28;20201;-64
2022/04/12 03:32:44;;;;;;;10.25;2.90;;;;;;;5.31;68.98;96225.00;2083580;28;20218;-64
2022/04/12 03:33:46;;;;;;;5.35;3.25;;;;;;;5.32;69.04;96212.84;2085975;28;20208;-64
2022/04/12 03:34:49;;;;;;;6.18;3.35;;;;;;;5.38;69.30;96222.06;2085059;28;20192;-64
2022/04/12 03:35:51;;;;;;;5.30;2.85;;;;;;;5.35;68.50;96223.03;2084859;28;20564;-64
2022/04/12 03:36:52;;;;;;;3.50;2.38;;;;;;;5.35;69.04;96218.72;2085745;28;20197;-64
2022/04/12 03:38:00;;;;;;;4.80;2.58;;;;;;;5.36;68.43;96216.94;2085911;28;20193;-64
2022/04/12 03:39:04;;;;;;;3.80;2.38;;;;;;;5.32;66.78;96200.69;2085157;28;20674;-65
2022/04/12 03:40:06;;;;;;;5.88;2.33;;;;;;;5.56;66.49;96226.25;2079385;28;20246;-64
2022/04/12 03:41:08;;;;;;;6.90;2.25;;;;;;;5.47;66.80;96208.56;2080263;28;20208;-64
2022/04/12 03:42:11;;;;;;;3.13;2.10;;;;;;;5.59;66.79;96228.69;2084520;28;20738;-63
2022/04/12 03:43:13;;;;;;;3.60;2.35;;;;;;;5.62;66.41;96227.69;2084722;28;20208;-66
2022/04/12 03:44:15;;;;;;;3.65;1.92;;;;;;;5.50;66.22;96209.22;2084564;28;20203;-65
2022/04/12 03:45:21;;;;;;;4.00;2.25;;;;;;;5.79;64.80;96226.75;2084710;28;20221;-65
2022/04/12 03:46:22;;;;;;;3.92;2.25;;;;;;;5.85;64.73;96226.41;2082492;28;20709;-65
2022/04/12 03:47:24;;;;;;;5.18;2.67;;;;;;;5.78;64.82;96218.09;2085250;28;20223;-65
2022/04/12 03:48:25;;;;;;;3.95;2.40;;;;;;;5.85;65.03;96226.41;2087591;28;20540;-65
2022/04/12 03:49:27;;;;;;;7.45;2.45;;;;;;;5.89;64.63;96227.91;2086984;28;20235;-66
2022/04/12 03:50:28;;;;;;;5.07;2.05;;;;;;;5.80;64.39;96202.44;2085030;28;20251;-65
2022/04/12 03:51:30;;;;;;;6.50;2.65;;;;;;;5.95;64.36;96219.81;2085112;28;20194;-65
2022/04/12 03:52:31;;;;;;;6.22;2.25;;;;;;;5.90;64.07;96201.84;2084689;28;20199;-65
2022/04/12 03:53:33;;;;;;;6.15;2.40;;;;;;;5.99;64.00;96218.69;2084821;28;20204;-65
2022/04/12 03:54:35;;;;;;;2.67;2.20;;;;;;;5.98;63.75;96219.63;2082657;28;20197;-65
2022/04/12 03:55:39;;;;;;;5.55;2.40;;;;;;;5.97;64.18;96222.31;2084451;28;20224;-65
2022/04/12 03:56:43;;;;;;;3.22;2.17;;;;;;;5.92;64.89;96214.75;2084779;28;20204;-65
2022/04/12 03:57:44;;;;;;;5.95;2.25;;;;;;;5.93;65.24;96224.22;2085060;28;20726;-65
2022/04/12 03:58:46;;;;;;;5.30;2.40;;;;;;;5.82;65.78;96218.78;2083510;28;20193;-65
2022/04/12 03:59:47;;;;;;;3.45;2.20;;;;;;;5.70;66.49;96223.75;2084546;28;20419;-65
2022/04/12 04:00:49;;;;;;;5.85;2.90;;;;;;;5.65;66.70;96217.97;2083618;28;20717;-66
2022/04/12 04:01:50;;;;;;;5.72;2.53;;;;;;;5.63;66.48;96225.00;2084078;28;20189;-65
2022/04/12 04:02:53;;;;;;;3.47;2.28;;;;;;;5.66;66.65;96231.78;2084024;28;20307;-65
2022/04/12 04:03:56;;;;;;;14.02;3.20;;;;;;;5.65;66.61;96219.72;2083562;28;20252;-66
2022/04/12 04:04:57;;;;;;;4.93;2.25;;;;;;;5.52;66.65;96212.59;2085621;28;20201;-65
2022/04/12 04:05:59;;;;;;;3.58;2.40;;;;;;;5.62;66.44;96231.09;2084973;28;20209;-66
2022/04/12 04:07:00;;;;;;;4.90;2.08;;;;;;;5.61;66.61;96229.44;2084605;28;20201;-66
2022/04/12 04:08:02;;;;;;;4.55;2.83;;;;;;;5.57;66.71;96227.94;2086771;28;20211;-65
2022/04/12 04:09:03;;;;;;;4.53;2.15;;;;;;;5.59;66.65;96227.88;2087192;28;20206;-65
2022/04/12 04:10:05;;;;;;;4.20;2.60;;;;;;;5.58;66.85;96224.41;2085659;28;20748;-65
2022/04/12 04:11:07;;;;;;;3.53;2.22;;;;;;;5.59;66.75;96231.28;2086103;28;20199;-65
2022/04/12 04:12:09;;;;;;;5.63;2.33;;;;;;;5.60;66.30;96222.56;2083836;28;20189;-66
2022/04/12 04:13:11;;;;;;;8.90;2.70;;;;;;;5.53;65.12;96192.66;2086913;28;20666;-65
2022/04/12 04:14:15;;;;;;;6.32;2.42;;;;;;;5.60;66.28;96213.94;2083101;28;20291;-65
2022/04/12 04:15:18;;;;;;;4.65;2.33;;;;;;;5.57;66.73;96222.75;2083802;28;20201;-65
2022/04/12 04:16:19;;;;;;;5.13;2.17;;;;;;;5.60;65.73;96217.38;2084744;28;20204;-65
2022/04/12 04:17:21;;;;;;;3.42;2.28;;;;;;;5.75;64.99;96220.88;2085360;28;20199;-65
2022/04/12 04:18:23;;;;;;;4.18;2.38;;;;;;;5.81;64.99;96232.72;2084339;28;20648;-65
2022/04/12 04:19:24;;;;;;;6.85;2.35;;;;;;;5.78;64.96;96231.09;2084026;28;20217;-65
2022/04/12 04:20:26;;;;;;;4.13;1.95;;;;;;;5.81;64.81;96222.31;2083938;28;20580;-65
2022/04/12 04:21:27;;;;;;;8.23;2.38;;;;;;;5.87;64.37;96219.38;2085031;28;20194;-65
2022/04/12 04:22:29;;;;;;;6.68;2.50;;;;;;;5.93;64.42;96226.81;2083895;28;20208;-65
2022/04/12 04:23:30;;;;;;;8.40;2.80;;;;;;;5.80;64.18;96199.84;2084840;28;20201;-70
2022/04/12 04:24:32;;;;;;;6.55;2.30;;;;;;;5.93;64.20;96224.22;2084637;28;20219;-71
2022/04/12 04:25:34;;;;;;;3.58;2.17;;;;;;;5.82;64.21;96205.78;2084367;28;20220;-70
2022/04/12 04:26:35;;;;;;;3.45;2.35;;;;;;;5.90;64.11;96225.22;2085148;28;20200;-70
2022/04/12 04:27:37;;;;;;;4.75;2.30;;;;;;;5.90;64.34;96213.97;2085278;28;20203;-71
2022/04/12 04:28:41;;;;;;;4.97;2.45;;;;;;;5.87;64.98;96221.97;2086090;28;20210;-71
2022/04/12 04:29:43;;;;;;;4.18;2.58;;;;;;;5.76;65.51;96209.56;2086322;28;20196;-70
2022/04/12 04:30:44;;;;;;;5.93;2.60;;;;;;;5.75;65.99;96215.69;2079004;28;20228;-70
2022/04/12 04:31:47;;;;;;;5.60;3.05;;;;;;;5.66;66.48;96211.81;2070834;28;20197;-70
2022/04/12 04:32:50;;;;;;;3.53;2.40;;;;;;;5.67;66.38;96225.69;2079858;28;20239;-71
2022/04/12 04:33:52;;;;;;;5.45;2.50;;;;;;;5.59;66.59;96213.09;2074981;28;20612;-71
2022/04/12 04:34:54;;;;;;;7.30;2.50;;;;;;;5.57;66.87;96217.53;2075432;28;20202;-71
2022/04/12 04:35:56;;;;;;;4.15;2.60;;;;;;;5.51;67.08;96215.28;2084478;28;20232;-71
2022/04/12 04:36:57;;;;;;;8.93;2.00;;;;;;;5.52;67.46;96217.78;2084295;28;20215;-70
2022/04/12 04:37:58;;;;;;;3.65;2.40;;;;;;;5.42;67.85;96219.22;2084684;28;20201;-70
2022/04/12 04:39:01;;;;;;;5.57;2.85;;;;;;;5.39;68.14;96215.94;2085404;28;20553;-70
2022/04/12 04:40:03;;;;;;;8.52;3.30;;;;;;;5.37;68.18;96208.25;2083593;28;20206;-70
2022/04/12 04:41:05;;;;;;;5.47;2.50;;;;;;;5.41;68.31;96217.56;2087316;28;20196;-71
2022/04/12 04:42:09;;;;;;;3.75;2.50;;;;;;;5.40;68.25;96220.22;2085625;28;20691;-70
2022/04/12 04:43:10;;;;;;;5.20;2.55;;;;;;;5.25;68.35;96207.16;2084922;28;20197;-71
2022/04/12 04:44:13;;;;;;;11.57;2.70;;;;;;;5.29;68.72;96213.84;2086002;28;20842;-70
2022/04/12 04:45:15;;;;;;;3.92;2.67;;;;;;;5.25;69.06;96212.34;2081425;28;20204;-71
2022/04/12 04:46:17;;;;;;;21.25;3.20;;;;;;;5.33;68.72;96211.91;2085053;28;20202;-71
2022/04/12 04:47:18;;;;;;;6.97;2.55;;;;;;;5.21;68.87;96202.19;2083391;28;20648;-70
2022/04/12 04:48:20;;;;;;;7.55;2.60;;;;;;;5.33;68.99;96219.69;2084889;28;20213;-70
2022/04/12 04:49:22;;;;;;;5.00;2.95;;;;;;;5.30;69.12;96222.47;2085304;28;20687;-70
2022/04/12 04:50:27;;;;;;;5.65;2.47;;;;;;;5.24;68.95;96215.84;2084867;28;20247;-70
2022/04/12 04:51:28;;;;;;;6.07;2.80;;;;;;;5.29;69.00;96225.97;2085578;28;20204;-70
2022/04/12 04:52:30;;;;;;;3.53;2.28;;;;;;;5.30;68.98;96223.31;2085573;28;20223;-70
2022/04/12 04:53:31;;;;;;;7.65;2.60;;;;;;;5.10;68.87;96200.19;2083002;28;20207;-70
2022/04/12 04:54:33;;;;;;;5.43;3.35;;;;;;;5.28;68.96;96225.16;2086797;28;20203;-70
2022/04/12 04:55:35;;;;;;;6.65;2.28;;;;;;;5.32;69.00;96226.66;2084271;28;20225;-71
2022/04/12 04:56:37;;;;;;;6.13;2.08;;;;;;;5.34;68.40;96222.22;2083742;28;20197;-70
2022/04/12 04:57:40;;;;;;;3.80;2.28;;;;;;;5.40;67.79;96221.06;2084855;28;20694;-70
2022/04/12 04:58:41;;;;;;;4.50;2.70;;;;;;;5.47;67.05;96221.53;2084785;28;20196;-70